Time;durP1;ratioP1;P1;durP2;ratioP2;P2;SDS_P1;SDS_P2;PMS_P1;PMS_P2;Temp;Humidity;BMP_temperature;BMP_pressure;BME280_temperature;BME280_humidity;BME280_pressure;Samples;Min_cycle;Max_cycle;Signal;HPM_P1;HPM_P2
2023/09/01 00:01:30;;;;;;;7.85;4.15;;;;;;;16.21;72.55;101081.75;5078426;28;20418;-67
2023/09/01 00:03:56;;;;;;;6.80;4.38;;;;;;;16.19;72.54;101072.78;5092236;28;20059;-67
2023/09/01 00:06:21;;;;;;;8.60;4.25;;;;;;;16.17;72.44;101072.25;5092982;28;20020;-67
2023/09/01 00:08:46;;;;;;;11.23;4.50;;;;;;;16.17;72.54;101077.84;5092778;28;20103;-67
2023/09/01 00:11:12;;;;;;;6.57;4.47;;;;;;;16.16;72.29;101070.56;5084005;28;20016;-66
2023/09/01 00:13:37;;;;;;;6.85;4.40;;;;;;;16.16;72.53;101065.81;5068486;28;20792;-67
2023/09/01 00:16:03;;;;;;;8.90;4.20;;;;;;;16.17;72.53;101061.03;5076428;28;20059;-68
2023/09/01 00:18:30;;;;;;;11.55;4.32;;;;;;;16.12;72.56;101055.47;5091900;28;20523;-66
2023/09/01 00:21:04;;;;;;;11.95;5.00;;;;;;;16.11;72.88;101051.84;5053172;28;20487;-67
2023/09/01 00:23:30;;;;;;;7.18;3.78;;;;;;;16.09;73.09;101062.47;5052312;28;20060;-66
2023/09/01 00:25:56;;;;;;;8.65;4.55;;;;;;;16.08;72.93;101068.38;5051316;28;20480;-66
2023/09/01 00:28:22;;;;;;;9.32;4.60;;;;;;;16.07;73.03;101058.25;5053316;28;20430;-66
2023/09/01 00:30:56;;;;;;;8.18;4.50;;;;;;;16.06;73.16;101059.41;5062792;28;20040;-67
2023/09/01 00:33:24;;;;;;;8.13;4.00;;;;;;;16.05;73.12;101057.72;5073053;28;20472;-67
2023/09/01 00:35:51;;;;;;;7.80;4.07;;;;;;;16.03;73.06;101057.16;5051756;28;20396;-66
2023/09/01 00:38:16;;;;;;;8.25;4.38;;;;;;;16.03;73.26;101052.38;5051216;28;20029;-67
2023/09/01 00:40:42;;;;;;;9.80;4.88;;;;;;;16.04;73.02;101054.09;5058295;28;20029;-67
2023/09/01 00:43:07;;;;;;;10.07;4.35;;;;;;;16.07;73.29;101047.94;5056397;28;20387;-66
2023/09/01 00:45:33;;;;;;;9.48;3.88;;;;;;;16.05;73.14;101046.53;5058790;28;20033;-66
2023/09/01 00:47:58;;;;;;;6.43;4.05;;;;;;;16.02;73.47;101045.13;5051218;28;20028;-66
2023/09/01 00:50:24;;;;;;;8.23;4.10;;;;;;;16.04;73.11;101036.47;5052172;28;20759;-68
2023/09/01 00:52:49;;;;;;;10.88;4.63;;;;;;;16.04;73.18;101033.66;5050985;28;20090;-68
2023/09/01 00:55:14;;;;;;;8.63;4.28;;;;;;;16.04;73.10;101044.84;5061634;28;20115;-67
2023/09/01 00:57:41;;;;;;;7.30;4.32;;;;;;;16.01;72.91;101039.81;5070222;28;20029;-67
2023/09/01 01:00:06;;;;;;;7.82;3.85;;;;;;;16.00;73.23;101040.94;5054717;28;20533;-66
2023/09/01 01:02:32;;;;;;;7.72;4.28;;;;;;;16.00;73.28;101039.00;5066108;28;20028;-66
2023/09/01 01:04:58;;;;;;;8.73;4.90;;;;;;;16.00;73.35;101044.59;5069632;28;20035;-67
2023/09/01 01:07:34;;;;;;;8.13;4.60;;;;;;;15.99;73.64;101040.09;5052165;28;20491;-66
2023/09/01 01:10:18;;;;;;;10.70;4.32;;;;;;;16.04;73.10;101051.28;5050831;28;20071;-67
2023/09/01 01:13:04;;;;;;;7.80;4.70;;;;;;;16.01;73.48;101057.47;5068623;28;20422;-67
2023/09/01 01:15:32;;;;;;;9.18;4.13;;;;;;;15.98;73.61;101057.19;5066369;28;20624;-67
2023/09/01 01:18:00;;;;;;;9.77;4.43;;;;;;;15.94;74.02;101062.50;5078010;28;20040;-66
2023/09/01 01:20:31;;;;;;;7.93;4.20;;;;;;;15.97;73.81;101055.50;5090842;28;20035;-67
2023/09/01 01:22:59;;;;;;;8.57;4.53;;;;;;;15.98;73.79;101055.22;5091381;28;20036;-67
2023/09/01 01:25:25;;;;;;;10.68;4.53;;;;;;;15.94;74.00;101045.72;5079867;28;20045;-67
2023/09/01 01:27:50;;;;;;;9.63;4.45;;;;;;;15.96;74.04;101037.88;5062379;28;20559;-66
2023/09/01 01:30:16;;;;;;;8.63;4.45;;;;;;;15.95;74.03;101039.84;5050960;28;20025;-66
2023/09/01 01:32:42;;;;;;;7.80;4.32;;;;;;;15.94;73.88;101040.13;5062579;28;20102;-66
2023/09/01 01:35:24;;;;;;;10.90;4.75;;;;;;;15.98;73.90;101049.63;5071008;28;20038;-66
2023/09/01 01:37:55;;;;;;;7.32;4.40;;;;;;;15.93;73.78;101056.06;5057860;28;20077;-66
2023/09/01 01:40:23;;;;;;;7.57;4.32;;;;;;;15.92;73.92;101045.19;5070832;28;20039;-66
2023/09/01 01:42:51;;;;;;;9.00;4.60;;;;;;;15.90;73.90;101050.19;5068005;28;20071;-66
2023/09/01 01:45:21;;;;;;;9.43;4.38;;;;;;;15.90;74.10;101051.03;5050824;28;20068;-66
2023/09/01 01:47:49;;;;;;;8.90;4.57;;;;;;;15.92;74.08;101062.81;5068569;28;20453;-67
2023/09/01 01:50:14;;;;;;;10.07;4.63;;;;;;;15.91;74.04;101069.50;5067255;28;20107;-67
2023/09/01 01:52:40;;;;;;;11.60;4.53;;;;;;;15.92;74.02;101068.41;5051131;28;20142;-66
2023/09/01 01:55:07;;;;;;;6.80;4.32;;;;;;;15.94;74.02;101079.31;5053396;28;20126;-66
2023/09/01 01:57:32;;;;;;;7.78;4.13;;;;;;;15.94;74.04;101068.94;5065150;28;20047;-66
2023/09/01 01:59:58;;;;;;;10.48;4.55;;;;;;;15.91;74.15;101052.72;5071275;28;20033;-66
2023/09/01 02:02:23;;;;;;;8.93;4.38;;;;;;;15.94;74.06;101054.09;5054594;28;20090;-67
2023/09/01 02:04:48;;;;;;;8.82;4.43;;;;;;;15.91;74.08;101061.09;5057818;28;20033;-67
2023/09/01 02:07:14;;;;;;;8.93;4.43;;;;;;;15.91;74.29;101049.91;5066126;28;20037;-67
2023/09/01 02:09:39;;;;;;;8.98;4.47;;;;;;;15.89;74.40;101040.97;5062002;28;20530;-67
2023/09/01 02:12:05;;;;;;;7.55;4.03;;;;;;;15.89;74.31;101040.97;5054493;28;20037;-67
2023/09/01 02:14:32;;;;;;;9.20;4.80;;;;;;;15.86;74.43;101041.53;5054478;28;20104;-67
2023/09/01 02:16:59;;;;;;;9.57;4.65;;;;;;;15.87;74.35;101034.81;5054120;28;20124;-67
2023/09/01 02:19:27;;;;;;;10.30;5.20;;;;;;;15.85;74.38;101039.88;5067698;28;20043;-67
2023/09/01 02:21:53;;;;;;;9.70;4.57;;;;;;;15.88;74.41;101044.06;5063487;28;20033;-67
2023/09/01 02:24:18;;;;;;;8.80;4.47;;;;;;;15.89;74.63;101040.13;5053632;28;20400;-67
2023/09/01 02:26:43;;;;;;;10.43;4.72;;;;;;;15.88;74.94;101038.47;5054508;28;20035;-67
2023/09/01 02:29:08;;;;;;;8.73;4.22;;;;;;;15.85;74.91;101042.66;5068247;28;20067;-67
2023/09/01 02:31:35;;;;;;;10.90;5.07;;;;;;;15.88;74.83;101044.91;5062248;28;20025;-67
2023/09/01 02:34:00;;;;;;;10.13;4.80;;;;;;;15.87;74.93;101046.00;5073469;28;20036;-66
2023/09/01 02:36:29;;;;;;;7.30;4.88;;;;;;;15.86;74.91;101030.34;5086808;28;20115;-67
2023/09/01 02:38:56;;;;;;;7.50;4.57;;;;;;;15.82;75.10;101028.41;5065382;28;20032;-67
2023/09/01 02:41:22;;;;;;;12.18;4.97;;;;;;;15.84;75.24;101031.75;5062985;28;20506;-67
2023/09/01 02:43:47;;;;;;;9.90;5.28;;;;;;;15.83;74.98;101021.66;5055252;28;20468;-66
2023/09/01 02:46:13;;;;;;;10.10;4.97;;;;;;;15.84;74.88;101018.59;5053219;28;20082;-66
2023/09/01 02:48:38;;;;;;;8.00;4.57;;;;;;;15.86;74.84;101021.09;5070771;28;20040;-67
2023/09/01 02:51:07;;;;;;;11.02;4.90;;;;;;;15.86;74.64;101016.34;5076407;28;20472;-67
2023/09/01 02:53:33;;;;;;;7.45;5.13;;;;;;;15.84;74.75;101026.16;5068430;28;20077;-68
2023/09/01 02:55:58;;;;;;;8.98;4.93;;;;;;;15.81;74.67;101021.97;5061175;28;20029;-66
2023/09/01 02:58:24;;;;;;;11.32;5.10;;;;;;;15.82;74.66;101023.63;5052850;28;20035;-67
2023/09/01 03:00:50;;;;;;;6.95;4.82;;;;;;;15.83;74.57;101021.66;5059505;28;20115;-67
2023/09/01 03:03:15;;;;;;;9.63;5.75;;;;;;;15.77;74.77;101040.44;5058663;28;20083;-66
2023/09/01 03:05:41;;;;;;;7.90;5.30;;;;;;;15.77;74.98;101034.84;5051569;28;20061;-67
2023/09/01 03:08:06;;;;;;;7.95;5.00;;;;;;;15.78;74.92;101030.91;5057130;28;20020;-66
2023/09/01 03:10:32;;;;;;;11.57;4.90;;;;;;;15.78;75.19;101027.28;5055268;28;20025;-66
2023/09/01 03:12:57;;;;;;;11.77;5.20;;;;;;;15.76;75.27;101035.97;5072872;28;20421;-67
2023/09/01 03:15:23;;;;;;;7.90;5.22;;;;;;;15.76;75.06;101037.91;5062553;28;20043;-67
2023/09/01 03:17:48;;;;;;;10.95;5.40;;;;;;;15.77;74.90;101029.25;5073414;28;20056;-66
2023/09/01 03:20:14;;;;;;;10.45;5.90;;;;;;;15.78;75.00;101018.88;5067774;28;20051;-67
2023/09/01 03:22:40;;;;;;;12.02;5.18;;;;;;;15.76;75.23;101019.19;5074278;28;20107;-67
2023/09/01 03:25:09;;;;;;;8.05;5.22;;;;;;;15.77;75.43;101017.22;5071710;28;20050;-66
2023/09/01 03:27:36;;;;;;;10.13;5.18;;;;;;;15.76;75.34;101024.78;5058331;28;20416;-67
2023/09/01 03:30:02;;;;;;;9.13;5.60;;;;;;;15.78;75.50;101021.69;5053483;28;20025;-67
2023/09/01 03:32:29;;;;;;;9.18;5.47;;;;;;;15.78;75.72;101022.53;5060531;28;20422;-67
2023/09/01 03:34:55;;;;;;;7.90;5.43;;;;;;;15.78;75.67;101010.50;5069480;28;20131;-67
2023/09/01 03:37:21;;;;;;;11.35;6.07;;;;;;;15.78;75.79;101014.13;5053278;28;20452;-67
2023/09/01 03:39:46;;;;;;;8.90;5.57;;;;;;;15.76;75.82;101016.38;5059721;28;20025;-67
2023/09/01 03:42:12;;;;;;;10.70;5.53;;;;;;;15.79;75.70;101017.75;5070903;28;20361;-66
2023/09/01 03:44:37;;;;;;;12.65;6.70;;;;;;;15.73;75.77;101011.34;5057935;28;20032;-66
2023/09/01 03:47:04;;;;;;;12.07;6.63;;;;;;;15.74;76.00;101006.59;5053221;28;20083;-67
2023/09/01 03:49:29;;;;;;;10.75;6.25;;;;;;;15.77;75.95;101012.47;5056247;28;20090;-67
2023/09/01 03:51:55;;;;;;;8.32;5.75;;;;;;;15.80;75.82;101011.03;5071157;28;20029;-66
2023/09/01 03:54:20;;;;;;;12.13;6.35;;;;;;;15.83;75.89;101005.72;5087355;28;20052;-66
2023/09/01 03:56:45;;;;;;;11.52;6.43;;;;;;;15.82;75.97;101004.03;5079760;28;20435;-66
2023/09/01 03:59:10;;;;;;;10.80;6.60;;;;;;;15.80;76.19;100999.84;5063867;28;20032;-66
2023/09/01 04:01:36;;;;;;;9.85;5.90;;;;;;;15.84;76.00;101004.59;5054865;28;20033;-66
2023/09/01 04:04:01;;;;;;;9.80;6.50;;;;;;;15.86;75.79;100998.72;5053239;28;20033;-67
2023/09/01 04:06:27;;;;;;;10.82;6.53;;;;;;;15.88;75.90;101004.88;5052757;28;20043;-66
2023/09/01 04:08:52;;;;;;;12.07;6.45;;;;;;;15.86;75.81;101005.16;5063949;28;20132;-66
2023/09/01 04:11:18;;;;;;;11.30;6.35;;;;;;;15.83;75.95;101005.72;5062831;28;20480;-66
2023/09/01 04:13:43;;;;;;;11.73;6.60;;;;;;;15.80;76.13;100995.09;5071382;28;20033;-67
2023/09/01 04:16:08;;;;;;;11.90;6.32;;;;;;;15.81;76.15;100999.56;5067576;28;20032;-66
2023/09/01 04:18:34;;;;;;;8.15;5.88;;;;;;;15.81;76.58;100996.78;5070417;28;20048;-66
2023/09/01 04:21:00;;;;;;;9.88;6.35;;;;;;;15.83;76.27;100996.47;5052267;28;20071;-66
2023/09/01 04:23:25;;;;;;;10.60;5.93;;;;;;;15.84;76.23;100996.22;5051893;28;20037;-67
2023/09/01 04:25:50;;;;;;;8.93;6.05;;;;;;;15.84;76.59;100996.22;5053481;28;20032;-67
2023/09/01 04:28:16;;;;;;;9.35;5.95;;;;;;;15.82;76.77;100992.84;5071047;28;20483;-67
2023/09/01 04:30:43;;;;;;;12.27;6.05;;;;;;;15.81;76.86;100999.56;5056283;28;20111;-67
2023/09/01 04:33:08;;;;;;;9.20;6.28;;;;;;;15.81;77.11;100993.97;5056346;28;20384;-67
2023/09/01 04:35:34;;;;;;;8.52;5.88;;;;;;;15.82;77.14;100987.25;5068260;28;20059;-66
2023/09/01 04:37:59;;;;;;;10.77;6.20;;;;;;;15.82;77.35;100978.84;5051538;28;20020;-66
2023/09/01 04:40:28;;;;;;;8.15;5.90;;;;;;;15.83;77.36;100986.13;5056718;28;20086;-68
2023/09/01 04:42:53;;;;;;;8.18;6.13;;;;;;;15.79;77.30;100987.81;5051918;28;20082;-67
2023/09/01 04:45:19;;;;;;;9.27;6.00;;;;;;;15.86;76.97;100987.50;5072190;28;20036;-66
2023/09/01 04:47:44;;;;;;;9.82;5.68;;;;;;;15.89;76.85;100987.78;5071557;28;20210;-67
2023/09/01 04:50:10;;;;;;;9.45;6.38;;;;;;;15.89;76.90;100987.78;5059429;28;20031;-67
2023/09/01 04:52:36;;;;;;;9.65;5.82;;;;;;;15.90;76.90;100994.22;5050831;28;20037;-67
2023/09/01 04:55:01;;;;;;;8.75;6.03;;;;;;;15.88;77.11;100991.72;5060532;28;20477;-67
2023/09/01 04:57:27;;;;;;;8.43;6.03;;;;;;;15.88;77.17;101002.91;5062034;28;20104;-66
2023/09/01 04:59:53;;;;;;;9.77;6.32;;;;;;;15.86;77.52;100999.53;5073530;28;20024;-67
2023/09/01 05:02:18;;;;;;;10.25;6.30;;;;;;;15.87;77.44;101009.63;5068971;28;20384;-67
2023/09/01 05:04:44;;;;;;;10.77;6.40;;;;;;;15.87;77.55;100998.41;5060581;28;20151;-67
2023/09/01 05:07:10;;;;;;;10.32;6.18;;;;;;;15.87;77.53;100992.81;5074677;28;20479;-66
2023/09/01 05:09:35;;;;;;;8.27;5.63;;;;;;;15.93;77.16;100993.66;5056347;28;20044;-66
2023/09/01 05:12:00;;;;;;;8.88;6.13;;;;;;;15.97;76.91;101000.34;5050427;28;20037;-66
2023/09/01 05:14:25;;;;;;;12.63;5.65;;;;;;;15.95;77.13;101006.25;5055531;28;20031;-66
2023/09/01 05:16:51;;;;;;;11.32;6.30;;;;;;;15.94;77.16;100998.97;5069022;28;20044;-66
2023/09/01 05:19:16;;;;;;;9.95;6.45;;;;;;;15.92;77.12;100992.81;5069239;28;20443;-66
2023/09/01 05:21:41;;;;;;;11.88;5.80;;;;;;;15.98;77.09;100998.41;5064046;28;20056;-67
2023/09/01 05:24:07;;;;;;;10.13;5.80;;;;;;;15.95;77.41;100989.47;5069594;28;20033;-67
2023/09/01 05:26:32;;;;;;;8.80;6.35;;;;;;;15.99;77.13;100995.28;5069475;28;20392;-66
2023/09/01 05:28:57;;;;;;;9.90;6.15;;;;;;;15.98;77.14;101007.63;5066837;28;20028;-67
2023/09/01 05:31:23;;;;;;;10.68;7.00;;;;;;;15.93;77.68;101005.69;5073388;28;20067;-67
2023/09/01 05:33:48;;;;;;;10.98;7.03;;;;;;;15.91;77.70;101013.50;5063814;28;20021;-66
2023/09/01 05:36:13;;;;;;;8.63;6.22;;;;;;;15.92;77.90;101006.81;5061873;28;20468;-66
2023/09/01 05:38:38;;;;;;;8.75;6.68;;;;;;;15.92;77.76;101018.00;5066538;28;20039;-66
2023/09/01 05:41:05;;;;;;;10.02;6.95;;;;;;;15.94;77.82;101012.13;5065676;28;20020;-67
2023/09/01 05:43:31;;;;;;;8.32;6.40;;;;;;;15.93;77.98;101010.44;5062867;28;20032;-67
2023/09/01 05:45:58;;;;;;;9.57;6.53;;;;;;;15.94;77.94;101010.16;5084902;28;20039;-67
2023/09/01 05:48:23;;;;;;;10.20;5.93;;;;;;;15.98;77.88;101012.38;5087219;28;20494;-67
2023/09/01 05:50:48;;;;;;;9.32;6.15;;;;;;;15.99;77.92;101017.69;5070843;28;20033;-66
2023/09/01 05:53:14;;;;;;;7.32;6.13;;;;;;;16.00;78.07;101010.16;5060542;28;20041;-67
2023/09/01 05:55:39;;;;;;;11.15;6.70;;;;;;;16.03;77.79;101003.97;5050063;28;20029;-67
2023/09/01 05:58:04;;;;;;;8.82;6.72;;;;;;;16.01;78.09;101001.47;5060103;28;20154;-66
2023/09/01 06:00:30;;;;;;;9.90;6.55;;;;;;;16.01;78.36;101000.63;5062197;28;20043;-66
2023/09/01 06:02:56;;;;;;;13.00;7.20;;;;;;;16.01;78.17;101003.44;5050247;28;20037;-67
2023/09/01 06:05:22;;;;;;;9.48;6.28;;;;;;;16.06;78.20;101003.41;5049899;28;20061;-66
2023/09/01 06:07:48;;;;;;;10.48;7.00;;;;;;;16.09;78.32;101000.03;5053206;28;20057;-67
2023/09/01 06:10:13;;;;;;;10.95;7.55;;;;;;;16.06;78.46;101000.59;5063494;28;20031;-66
2023/09/01 06:12:38;;;;;;;9.63;6.68;;;;;;;16.09;78.46;101000.03;5060773;28;20060;-66
2023/09/01 06:15:05;;;;;;;10.05;7.18;;;;;;;16.08;78.42;101006.75;5050779;28;20063;-66
2023/09/01 06:17:30;;;;;;;13.38;7.32;;;;;;;16.10;78.55;101007.31;5052371;28;20567;-66
2023/09/01 06:19:56;;;;;;;13.55;7.57;;;;;;;16.12;78.28;101010.66;5052491;28;20112;-65
2023/09/01 06:22:21;;;;;;;10.77;7.45;;;;;;;16.11;78.71;101011.75;5050132;28;20037;-66
2023/09/01 06:24:47;;;;;;;11.75;7.63;;;;;;;16.07;79.00;101013.47;5050349;28;20041;-67
2023/09/01 06:27:12;;;;;;;10.82;7.28;;;;;;;16.07;79.29;101016.25;5058738;28;20029;-67
2023/09/01 06:29:38;;;;;;;8.82;7.18;;;;;;;16.09;79.18;101022.44;5069389;28;20169;-67
2023/09/01 06:32:03;;;;;;;11.25;8.02;;;;;;;16.10;79.12;101015.69;5055146;28;20574;-68
2023/09/01 06:34:29;;;;;;;13.70;7.90;;;;;;;16.13;79.21;101017.94;5057117;28;20479;-68
2023/09/01 06:36:56;;;;;;;11.93;8.23;;;;;;;16.10;79.60;101016.53;5064380;28;20021;-68
2023/09/01 06:39:21;;;;;;;12.82;8.55;;;;;;;16.09;79.73;101014.03;5073571;28;20026;-68
2023/09/01 06:41:46;;;;;;;13.38;8.35;;;;;;;16.10;79.71;101016.53;5079960;28;20032;-67
2023/09/01 06:44:12;;;;;;;12.02;9.00;;;;;;;16.10;80.21;101021.31;5066502;28;20029;-67
2023/09/01 06:46:37;;;;;;;13.32;9.02;;;;;;;16.09;80.47;101033.63;5070682;28;20472;-68
2023/09/01 06:49:02;;;;;;;12.60;8.73;;;;;;;16.12;80.10;101027.47;5063917;28;20039;-68
2023/09/01 06:51:29;;;;;;;17.10;8.85;;;;;;;16.12;79.97;101019.91;5071045;28;20024;-68
2023/09/01 06:53:54;;;;;;;11.35;8.88;;;;;;;16.14;80.65;101014.00;5086053;28;20038;-68
2023/09/01 06:56:20;;;;;;;12.07;8.98;;;;;;;16.16;80.82;101028.56;5084776;28;20032;-69
2023/09/01 06:58:45;;;;;;;11.32;8.98;;;;;;;16.20;80.61;101029.66;5093258;28;20098;-69
2023/09/01 07:01:11;;;;;;;13.13;8.90;;;;;;;16.21;80.47;101022.94;5078716;28;20120;-68
2023/09/01 07:03:37;;;;;;;15.02;9.60;;;;;;;16.20;80.57;101010.91;5057848;28;20469;-69
2023/09/01 07:06:03;;;;;;;13.30;9.00;;;;;;;16.20;80.96;101010.91;5066919;28;21104;-69
2023/09/01 07:08:29;;;;;;;11.93;9.13;;;;;;;16.19;81.17;101008.38;5060005;28;20417;-68
2023/09/01 07:11:04;;;;;;;12.20;8.98;;;;;;;16.21;81.08;101003.34;5059763;28;20062;-67
2023/09/01 07:13:30;;;;;;;13.60;9.68;;;;;;;16.22;81.33;101001.38;5062875;28;20064;-67
2023/09/01 07:15:56;;;;;;;14.32;9.65;;;;;;;16.24;81.21;100999.13;5059962;28;20040;-68
2023/09/01 07:18:25;;;;;;;13.38;9.63;;;;;;;16.24;81.73;101001.94;5055652;28;20059;-68
2023/09/01 07:20:51;;;;;;;13.57;10.52;;;;;;;16.21;81.96;101000.53;5062673;28;20036;-67
2023/09/01 07:23:16;;;;;;;12.55;9.65;;;;;;;16.23;81.72;101009.50;5059639;28;20040;-68
2023/09/01 07:25:44;;;;;;;13.38;10.80;;;;;;;16.21;82.52;101008.94;5050174;28;20040;-67
2023/09/01 07:28:13;;;;;;;14.20;9.85;;;;;;;16.24;82.29;101011.16;5059278;28;20809;-65
2023/09/01 07:30:39;;;;;;;13.13;10.10;;;;;;;16.25;82.06;101001.63;5065065;28;20467;-67
2023/09/01 07:33:04;;;;;;;12.18;9.75;;;;;;;16.26;82.38;101003.31;5063315;28;20030;-67
2023/09/01 07:35:30;;;;;;;13.23;10.20;;;;;;;16.27;82.35;100992.94;5061619;28;20029;-68
2023/09/01 07:37:56;;;;;;;15.90;10.60;;;;;;;16.26;82.42;100994.91;5069305;28;20044;-67
2023/09/01 07:40:22;;;;;;;13.00;10.32;;;;;;;16.27;82.67;100999.41;5061101;28;20031;-69
2023/09/01 07:42:47;;;;;;;13.07;10.45;;;;;;;16.23;83.21;100994.63;5073020;28;20463;-69
2023/09/01 07:45:13;;;;;;;14.55;10.88;;;;;;;16.24;83.26;100997.16;5079354;28;20044;-69
2023/09/01 07:47:38;;;;;;;11.85;10.18;;;;;;;16.24;83.25;100997.16;5066160;28;20028;-67
2023/09/01 07:50:04;;;;;;;11.43;10.07;;;;;;;16.23;83.33;101003.91;5064603;28;20024;-66
2023/09/01 07:52:30;;;;;;;12.30;10.68;;;;;;;16.20;83.55;100999.69;5062822;28;20051;-66
2023/09/01 07:54:55;;;;;;;11.70;10.40;;;;;;;16.23;83.43;100997.44;5073988;28;20831;-66
2023/09/01 07:57:20;;;;;;;12.18;10.88;;;;;;;16.24;84.03;101004.72;5071448;28;20390;-66
2023/09/01 07:59:46;;;;;;;13.93;10.82;;;;;;;16.20;84.23;100999.69;5070799;28;20025;-66
2023/09/01 08:02:11;;;;;;;15.15;11.00;;;;;;;16.20;84.34;101004.47;5080933;28;20160;-65
2023/09/01 08:04:36;;;;;;;13.30;11.13;;;;;;;16.23;84.62;101014.25;5062235;28;20071;-65
2023/09/01 08:07:02;;;;;;;12.38;10.07;;;;;;;16.26;84.29;101008.91;5054309;28;20025;-65
2023/09/01 08:09:27;;;;;;;12.43;11.00;;;;;;;16.25;84.80;101009.19;5062770;28;20125;-65
2023/09/01 08:11:52;;;;;;;12.15;10.48;;;;;;;16.25;85.26;101026.84;5061418;28;20379;-65
2023/09/01 08:14:17;;;;;;;12.82;10.15;;;;;;;16.26;84.94;101020.09;5062480;28;20035;-67
2023/09/01 08:16:43;;;;;;;13.00;10.85;;;;;;;16.25;85.71;101018.44;5078443;28;20127;-67
2023/09/01 08:19:09;;;;;;;11.13;9.65;;;;;;;16.28;85.11;101026.28;5091355;28;20064;-66
2023/09/01 08:21:35;;;;;;;12.10;10.52;;;;;;;16.30;85.32;101024.00;5054626;28;20025;-65
2023/09/01 08:24:01;;;;;;;11.95;10.15;;;;;;;16.29;85.47;101029.91;5068702;28;20028;-66
2023/09/01 08:26:26;;;;;;;11.73;9.68;;;;;;;16.31;85.13;101038.84;5070215;28;20425;-67
2023/09/01 08:28:52;;;;;;;12.10;9.70;;;;;;;16.30;85.37;101026.81;5062517;28;20152;-67
2023/09/01 08:31:17;;;;;;;11.23;9.52;;;;;;;16.30;85.45;101029.59;5051937;28;20063;-66
2023/09/01 08:33:44;;;;;;;10.40;9.35;;;;;;;16.33;85.84;101031.84;5057225;28;20048;-67
2023/09/01 08:36:09;;;;;;;11.38;9.70;;;;;;;16.32;85.90;101032.97;5059854;28;20025;-68
2023/09/01 08:38:35;;;;;;;11.70;9.27;;;;;;;16.35;85.63;101040.81;5057424;28;20499;-66
2023/09/01 08:41:03;;;;;;;11.18;9.70;;;;;;;16.36;85.60;101050.88;5064903;28;20023;-65
2023/09/01 08:43:35;;;;;;;10.98;9.88;;;;;;;16.34;85.72;101047.50;5067593;28;20024;-65
2023/09/01 08:46:03;;;;;;;10.65;9.18;;;;;;;16.35;85.43;101056.78;5069869;28;20032;-65
2023/09/01 08:48:28;;;;;;;9.20;8.27;;;;;;;16.36;85.45;101050.88;5066491;28;20033;-65
2023/09/01 08:50:55;;;;;;;9.98;9.07;;;;;;;16.37;85.78;101058.16;5062055;28;20036;-66
2023/09/01 08:53:21;;;;;;;8.95;8.15;;;;;;;16.37;85.80;101062.91;5071023;28;20028;-66
2023/09/01 08:55:48;;;;;;;10.35;9.07;;;;;;;16.36;86.06;101061.25;5054489;28;20737;-66
2023/09/01 08:58:13;;;;;;;9.48;8.48;;;;;;;16.36;86.37;101056.47;5050297;28;20029;-67
2023/09/01 09:00:39;;;;;;;10.32;9.23;;;;;;;16.36;86.39;101056.47;5057727;28;20101;-66
2023/09/01 09:03:05;;;;;;;10.35;9.07;;;;;;;16.37;86.69;101058.16;5070636;28;20058;-67
2023/09/01 09:05:32;;;;;;;9.23;8.48;;;;;;;16.39;86.43;101069.09;5069985;28;20035;-67
2023/09/01 09:08:03;;;;;;;9.02;8.15;;;;;;;16.39;86.45;101063.50;5066734;28;20062;-67
2023/09/01 09:10:35;;;;;;;9.57;8.68;;;;;;;16.40;86.37;101065.16;5055334;28;20060;-67
2023/09/01 09:13:03;;;;;;;9.75;8.75;;;;;;;16.40;86.82;101066.00;5051120;28;20033;-70
2023/09/01 09:15:28;;;;;;;10.60;9.60;;;;;;;16.40;86.52;101067.97;5057599;28;20035;-67
2023/09/01 09:17:54;;;;;;;11.00;9.90;;;;;;;16.37;87.21;101060.13;5057153;28;20033;-68
2023/09/01 09:20:22;;;;;;;10.65;9.65;;;;;;;16.38;87.21;101059.00;5056696;28;20039;-68
2023/09/01 09:22:59;;;;;;;11.15;9.15;;;;;;;16.35;87.61;101068.00;5070743;28;20047;-69
2023/09/01 09:25:29;;;;;;;11.95;9.40;;;;;;;16.37;87.55;101063.75;5057770;28;20071;-68
2023/09/01 09:27:56;;;;;;;9.55;8.60;;;;;;;16.37;87.50;101065.72;5058777;28;20074;-68
2023/09/01 09:30:23;;;;;;;9.38;8.57;;;;;;;16.40;87.40;101066.00;5054242;28;20082;-68
2023/09/01 09:33:00;;;;;;;9.18;8.38;;;;;;;16.42;87.56;101065.69;5066137;28;20498;-67
2023/09/01 09:35:26;;;;;;;9.70;8.80;;;;;;;16.41;87.70;101073.25;5064169;28;20115;-69
2023/09/01 09:38:01;;;;;;;9.48;8.50;;;;;;;16.41;88.11;101078.03;5055727;28;20032;-68
2023/09/01 09:40:27;;;;;;;9.27;8.43;;;;;;;16.39;88.04;101080.28;5063599;28;20054;-68
2023/09/01 09:42:58;;;;;;;8.60;7.80;;;;;;;16.41;88.04;101084.47;5056576;28;20052;-68
2023/09/01 09:45:26;;;;;;;8.45;7.65;;;;;;;16.39;88.32;101083.94;5059300;28;20072;-67
2023/09/01 09:47:53;;;;;;;7.53;6.82;;;;;;;16.37;88.28;101082.53;5057107;28;20028;-68
2023/09/01 09:50:20;;;;;;;9.50;6.53;;;;;;;16.38;88.25;101079.44;5062476;28;20476;-68
2023/09/01 09:52:49;;;;;;;7.22;6.53;;;;;;;16.39;88.63;101083.09;5074122;28;20552;-68
2023/09/01 09:55:24;;;;;;;7.47;6.72;;;;;;;16.42;88.43;101083.34;5065066;28;20078;-69
2023/09/01 09:57:50;;;;;;;7.45;6.78;;;;;;;16.44;88.74;101077.47;5053119;28;20021;-68
2023/09/01 10:00:19;;;;;;;7.50;6.75;;;;;;;16.45;89.07;101073.53;5065066;28;20111;-68
2023/09/01 10:02:50;;;;;;;7.18;6.00;;;;;;;16.42;89.20;101069.31;5061066;28;21148;-70
2023/09/01 10:05:16;;;;;;;5.78;5.28;;;;;;;16.44;89.08;101075.50;5066492;28;20037;-67
2023/09/01 10:07:42;;;;;;;6.07;5.57;;;;;;;16.44;89.59;101067.09;5067645;28;20025;-66
2023/09/01 10:10:09;;;;;;;5.57;5.18;;;;;;;16.44;89.66;101066.25;5067584;28;20094;-65
2023/09/01 10:12:35;;;;;;;4.97;4.57;;;;;;;16.44;89.80;101067.09;5064606;28;20041;-66
2023/09/01 10:15:03;;;;;;;5.32;4.85;;;;;;;16.49;89.64;101068.19;5050206;28;20556;-66
2023/09/01 10:17:32;;;;;;;5.22;4.82;;;;;;;16.46;89.79;101066.78;5069762;28;20056;-66
2023/09/01 10:20:00;;;;;;;4.75;4.35;;;;;;;16.50;89.40;101065.09;5070722;28;20032;-66
2023/09/01 10:22:26;;;;;;;5.50;5.00;;;;;;;16.51;89.72;101068.75;5063746;28;20392;-66
2023/09/01 10:25:15;;;;;;;5.57;5.07;;;;;;;16.55;89.39;101072.66;5079869;28;20039;-67
2023/09/01 10:28:12;;;;;;;8.45;5.50;;;;;;;16.56;89.48;101069.56;5062113;28;20048;-67
2023/09/01 10:30:42;;;;;;;6.18;5.57;;;;;;;16.55;89.91;101067.88;5053104;28;20492;-65
2023/09/01 10:33:10;;;;;;;5.90;5.30;;;;;;;16.58;89.77;101072.06;5054419;28;20048;-65
2023/09/01 10:35:44;;;;;;;6.90;6.30;;;;;;;16.57;90.41;101071.22;5057648;28;20043;-65
2023/09/01 10:38:18;;;;;;;5.85;5.35;;;;;;;16.61;90.72;101077.09;5054637;28;20034;-66
2023/09/01 10:40:47;;;;;;;5.68;5.18;;;;;;;16.61;90.33;101077.94;5071386;28;20062;-65
2023/09/01 10:43:13;;;;;;;6.05;5.07;;;;;;;16.63;90.54;101074.84;5065252;28;20052;-66
2023/09/01 10:45:39;;;;;;;5.50;5.00;;;;;;;16.63;90.49;101086.06;5069207;28;20107;-66
2023/09/01 10:48:11;;;;;;;5.10;4.65;;;;;;;16.67;90.60;101088.00;5071547;28;20054;-67
2023/09/01 10:50:40;;;;;;;4.65;4.25;;;;;;;16.68;90.43;101089.66;5070708;28;20042;-65
2023/09/01 10:53:31;;;;;;;4.95;4.55;;;;;;;16.74;90.35;101096.13;5064888;28;20446;-65
2023/09/01 10:56:16;;;;;;;5.00;4.57;;;;;;;16.79;90.97;101093.28;5066532;28;20028;-65
2023/09/01 10:58:46;;;;;;;5.55;4.60;;;;;;;16.80;91.08;101100.56;5063631;28;20341;-65
2023/09/01 11:01:31;;;;;;;8.60;4.57;;;;;;;16.83;91.21;101094.38;5065086;28;20178;-65
2023/09/01 11:04:21;;;;;;;4.32;3.92;;;;;;;16.84;90.61;101090.44;5068402;28;20385;-66
2023/09/01 11:07:00;;;;;;;4.68;4.25;;;;;;;16.87;90.78;101098.28;5067789;28;20099;-67
2023/09/01 11:09:34;;;;;;;5.25;3.90;;;;;;;16.91;91.30;101084.53;5067230;28;20041;-67
2023/09/01 11:12:05;;;;;;;4.70;4.30;;;;;;;16.94;91.24;101086.75;5082200;28;20024;-66
2023/09/01 11:14:31;;;;;;;3.88;3.55;;;;;;;16.94;91.48;101086.75;5075372;28;20036;-64
2023/09/01 11:16:56;;;;;;;3.60;3.30;;;;;;;16.99;91.20;101078.31;5052988;28;20025;-66
2023/09/01 11:19:21;;;;;;;4.18;3.70;;;;;;;17.01;91.29;101080.81;5062069;28;20127;-70
2023/09/01 11:21:47;;;;;;;3.90;3.60;;;;;;;17.02;91.28;101088.13;5057344;28;20040;-67